Time;durP1;ratioP1;P1;durP2;ratioP2;P2;SDS_P1;SDS_P2;PMS_P1;PMS_P2;Temp;Humidity;BMP_temperature;BMP_pressure;BME280_temperature;BME280_humidity;BME280_pressure;Samples;Min_cycle;Max_cycle;Signal;HPM_P1;HPM_P2
2022/03/27 00:00:45;;;;;;;13.93;7.70;;;14.00;1.00;;;;;;5059874;28;20477;-78
2022/03/27 00:03:15;;;;;;;14.97;8.47;;;13.90;1.00;;;;;;5057041;28;20470;-77
2022/03/27 00:05:43;;;;;;;14.07;9.87;;;13.90;1.00;;;;;;5059054;28;20449;-78
2022/03/27 00:08:11;;;;;;;14.57;8.43;;;13.90;1.00;;;;;;5057669;28;20870;-76
2022/03/27 00:13:25;;;;;;;15.90;8.93;;;13.70;1.00;;;;;;5052987;28;20480;-78
2022/03/27 00:15:54;;;;;;;11.87;7.90;;;13.80;1.00;;;;;;5060739;28;20455;-76
2022/03/27 00:18:23;;;;;;;15.00;8.50;;;13.80;1.00;;;;;;5061073;28;20492;-78
2022/03/27 00:20:53;;;;;;;15.47;7.93;;;13.70;1.00;;;;;;5062310;28;20473;-77
2022/03/27 00:23:21;;;;;;;13.83;7.73;;;13.70;1.00;;;;;;5075437;28;20450;-78
2022/03/27 00:25:50;;;;;;;16.63;8.27;;;13.70;1.00;;;;;;5067145;28;20469;-79
2022/03/27 00:28:18;;;;;;;15.37;7.70;;;13.70;1.00;;;;;;5066117;28;20990;-78
2022/03/27 00:30:47;;;;;;;10.63;7.50;;;13.60;1.00;;;;;;5059768;28;20442;-78
2022/03/27 00:33:15;;;;;;;13.60;7.50;;;13.60;1.00;;;;;;5065302;28;20455;-78
2022/03/27 00:35:45;;;;;;;13.27;7.67;;;13.70;1.00;;;;;;5061551;28;20431;-78
2022/03/27 00:38:13;;;;;;;13.10;6.73;;;13.70;1.00;;;;;;5067155;28;20463;-79
2022/03/27 00:40:41;;;;;;;12.67;8.27;;;13.60;1.00;;;;;;5062477;28;20476;-78
2022/03/27 00:43:10;;;;;;;16.90;7.87;;;13.40;1.00;;;;;;5070111;28;20449;-78
2022/03/27 00:45:39;;;;;;;12.83;7.50;;;13.40;1.00;;;;;;5067287;28;20455;-78
2022/03/27 00:48:07;;;;;;;14.70;8.10;;;13.40;1.00;;;;;;5060220;28;21011;-79
2022/03/27 00:50:35;;;;;;;18.83;9.57;;;13.30;1.00;;;;;;5060755;28;20967;-78
2022/03/27 00:53:05;;;;;;;15.07;8.03;;;13.20;1.00;;;;;;5070861;28;20453;-78
2022/03/27 00:55:33;;;;;;;13.97;8.53;;;13.20;1.00;;;;;;5057378;28;20445;-79
2022/03/27 00:58:01;;;;;;;16.10;9.20;;;13.20;1.00;;;;;;5060963;28;20453;-78
2022/03/27 01:00:51;;;;;;;13.90;7.70;;;13.20;1.00;;;;;;5072081;28;20466;-79
2022/03/27 01:03:21;;;;;;;16.23;8.93;;;13.20;1.00;;;;;;5065167;28;20455;-78
2022/03/27 01:05:50;;;;;;;12.87;8.57;;;13.10;1.00;;;;;;5068713;28;20464;-78
2022/03/27 01:11:13;;;;;;;18.27;7.97;;;13.20;1.00;;;;;;5059292;28;20454;-78
2022/03/27 01:13:46;;;;;;;16.50;9.17;;;13.10;1.00;;;;;;5064644;28;20979;-77
2022/03/27 01:16:30;;;;;;;14.00;8.40;;;13.00;1.00;;;;;;5063278;28;20448;-77
2022/03/27 01:19:00;;;;;;;11.33;7.33;;;13.00;1.00;;;;;;5065274;28;20509;-78
2022/03/27 01:21:30;;;;;;;12.67;7.43;;;13.00;1.00;;;;;;5065089;28;20484;-78
2022/03/27 01:23:58;;;;;;;16.03;8.63;;;12.90;1.00;;;;;;5069097;28;20438;-77
2022/03/27 01:26:26;;;;;;;14.17;7.77;;;13.00;1.00;;;;;;5065796;28;20518;-78
2022/03/27 01:28:54;;;;;;;13.77;8.00;;;13.00;1.00;;;;;;5069996;28;20473;-78
2022/03/27 01:31:24;;;;;;;12.83;7.80;;;12.90;1.00;;;;;;5066284;28;22663;-79
2022/03/27 01:33:52;;;;;;;14.73;8.20;;;12.90;1.00;;;;;;5065340;28;20456;-77
2022/03/27 01:36:24;;;;;;;11.60;7.17;;;12.90;1.00;;;;;;5065415;28;20960;-78
2022/03/27 01:38:56;;;;;;;13.13;8.00;;;12.80;1.00;;;;;;5066902;28;20451;-78
2022/03/27 01:41:24;;;;;;;12.17;7.07;;;12.70;1.00;;;;;;5056354;28;20476;-77
2022/03/27 01:43:53;;;;;;;13.50;7.50;;;12.70;1.00;;;;;;5066774;28;20458;-78
2022/03/27 01:46:21;;;;;;;11.37;7.00;;;12.50;1.00;;;;;;5058168;28;20990;-79
2022/03/27 01:48:50;;;;;;;14.17;8.27;;;12.30;1.00;;;;;;5061999;28;20478;-78
2022/03/27 01:51:18;;;;;;;14.27;7.73;;;12.20;1.00;;;;;;5064864;28;20446;-78
2022/03/27 01:53:46;;;;;;;12.33;6.87;;;12.20;1.00;;;;;;5069833;28;20476;-78
2022/03/27 01:56:16;;;;;;;17.27;7.70;;;12.20;1.00;;;;;;5059582;28;20464;-79
2022/03/27 01:58:44;;;;;;;14.03;7.83;;;12.30;1.00;;;;;;5060402;28;20467;-78
2022/03/27 02:01:12;;;;;;;16.50;9.10;;;12.40;1.00;;;;;;5064009;28;20473;-79
2022/03/27 02:03:40;;;;;;;12.27;7.67;;;12.30;1.00;;;;;;5065335;28;21364;-80
2022/03/27 02:06:08;;;;;;;17.20;7.73;;;12.40;1.00;;;;;;5061500;28;20460;-79
2022/03/27 02:08:37;;;;;;;13.27;8.20;;;12.40;1.00;;;;;;5063807;28;21269;-77
2022/03/27 02:11:06;;;;;;;10.70;6.93;;;12.40;1.00;;;;;;5062722;28;20450;-76
2022/03/27 02:13:36;;;;;;;15.53;7.70;;;12.40;1.00;;;;;;5075923;28;20471;-79
2022/03/27 02:16:04;;;;;;;11.17;6.80;;;12.30;1.00;;;;;;5064958;28;20468;-79
2022/03/27 02:18:33;;;;;;;11.97;7.20;;;12.10;1.00;;;;;;5061400;28;21179;-78
2022/03/27 02:21:02;;;;;;;13.70;7.83;;;12.40;1.00;;;;;;5063781;28;20473;-77
2022/03/27 02:23:31;;;;;;;17.30;7.77;;;12.20;1.00;;;;;;5067787;28;20493;-79
2022/03/27 02:25:59;;;;;;;16.50;8.10;;;12.20;1.00;;;;;;5064693;28;21028;-78
2022/03/27 02:28:27;;;;;;;15.03;7.77;;;12.30;1.00;;;;;;5066996;28;20471;-78
2022/03/27 02:30:57;;;;;;;13.13;7.20;;;12.20;1.00;;;;;;5063202;28;20483;-78
2022/03/27 02:33:25;;;;;;;15.60;9.07;;;12.10;1.00;;;;;;5061736;28;20507;-80
2022/03/27 02:35:53;;;;;;;14.77;7.33;;;12.00;1.00;;;;;;5057967;28;20455;-79
2022/03/27 02:38:21;;;;;;;12.57;7.53;;;12.00;1.00;;;;;;5063919;28;20476;-79
2022/03/27 02:40:50;;;;;;;11.77;6.80;;;12.00;1.00;;;;;;5059133;28;20524;-78
2022/03/27 02:43:18;;;;;;;14.80;8.73;;;11.90;1.00;;;;;;5061977;28;20443;-78
2022/03/27 02:45:48;;;;;;;11.33;7.30;;;11.90;1.00;;;;;;5059675;28;20459;-78
2022/03/27 02:48:17;;;;;;;8.47;7.30;;;11.90;1.00;;;;;;5057923;28;20475;-80
2022/03/27 02:50:47;;;;;;;14.40;6.47;;;11.90;1.00;;;;;;5057901;28;20451;-77
2022/03/27 02:53:15;;;;;;;10.87;6.50;;;11.90;1.00;;;;;;5064460;28;20943;-78
2022/03/27 02:55:43;;;;;;;13.33;7.57;;;11.80;1.00;;;;;;5062251;28;20812;-77
2022/03/27 02:58:12;;;;;;;14.37;8.20;;;11.70;1.00;;;;;;5062743;28;20463;-78
2022/03/27 03:00:42;;;;;;;14.00;7.47;;;11.80;1.00;;;;;;5061186;28;20471;-76
2022/03/27 03:03:10;;;;;;;11.77;6.53;;;11.80;1.00;;;;;;5067556;28;20445;-78
2022/03/27 03:05:41;;;;;;;12.97;6.20;;;11.70;1.00;;;;;;5060999;28;21227;-78
2022/03/27 03:08:11;;;;;;;10.00;6.50;;;11.70;1.00;;;;;;5056949;28;20468;-77
2022/03/27 03:10:40;;;;;;;12.70;7.47;;;11.80;1.00;;;;;;5058465;28;20450;-77
2022/03/27 03:13:09;;;;;;;14.83;7.10;;;11.80;1.00;;;;;;5066876;28;20455;-77
2022/03/27 03:15:38;;;;;;;16.43;7.70;;;11.60;1.00;;;;;;5064663;28;20455;-79
2022/03/27 03:18:08;;;;;;;12.50;7.30;;;11.60;1.00;;;;;;5063536;28;20455;-78
2022/03/27 03:20:38;;;;;;;10.30;6.70;;;11.60;1.00;;;;;;5056062;28;20465;-77
2022/03/27 03:23:10;;;;;;;12.03;7.70;;;11.60;1.00;;;;;;5060623;28;20530;-78
2022/03/27 03:25:40;;;;;;;17.30;7.30;;;11.60;1.00;;;;;;5060728;28;20478;-77
2022/03/27 03:28:28;;;;;;;12.50;7.10;;;11.60;1.00;;;;;;5061963;28;20895;-80
2022/03/27 03:30:56;;;;;;;14.37;8.10;;;11.80;1.00;;;;;;5062074;28;21032;-78
2022/03/27 03:33:25;;;;;;;12.13;6.90;;;11.60;1.00;;;;;;5059250;28;20848;-80
2022/03/27 03:35:54;;;;;;;12.40;7.20;;;11.30;1.00;;;;;;5058496;28;20468;-77
2022/03/27 03:38:23;;;;;;;11.37;7.13;;;11.40;1.00;;;;;;5059143;28;20478;-78
2022/03/27 03:40:52;;;;;;;14.47;8.70;;;11.40;1.00;;;;;;5056486;28;20478;-78
2022/03/27 03:43:20;;;;;;;9.63;6.60;;;11.40;1.00;;;;;;5060441;28;20456;-78
2022/03/27 03:45:49;;;;;;;10.93;7.00;;;11.40;1.00;;;;;;5051195;28;20492;-78
2022/03/27 03:48:18;;;;;;;11.50;7.30;;;11.40;1.00;;;;;;5059988;28;20494;-79
2022/03/27 03:50:46;;;;;;;8.10;6.57;;;11.40;1.00;;;;;;5063916;28;20472;-78
2022/03/27 03:53:14;;;;;;;11.73;6.70;;;11.20;1.00;;;;;;5065625;28;20461;-78
2022/03/27 03:55:44;;;;;;;10.33;6.60;;;11.20;1.00;;;;;;5066316;28;20486;-78
2022/03/27 03:58:12;;;;;;;11.43;7.43;;;11.20;1.00;;;;;;5060864;28;21090;-78
2022/03/27 04:00:41;;;;;;;11.90;7.27;;;11.20;1.00;;;;;;5065636;28;20464;-77
2022/03/27 04:03:10;;;;;;;10.97;7.80;;;11.10;1.00;;;;;;5062204;28;20876;-78
2022/03/27 04:05:38;;;;;;;14.33;7.90;;;11.00;1.00;;;;;;5063037;28;20465;-77
2022/03/27 04:08:07;;;;;;;13.80;7.93;;;11.10;1.00;;;;;;5065306;28;20438;-77
2022/03/27 04:10:35;;;;;;;15.77;7.83;;;11.20;1.00;;;;;;5060093;28;20452;-78
2022/03/27 04:13:05;;;;;;;12.70;7.70;;;11.30;1.00;;;;;;5065180;28;20451;-78
2022/03/27 04:15:33;;;;;;;11.57;8.27;;;11.20;1.00;;;;;;5062178;28;20453;-77
2022/03/27 04:18:21;;;;;;;9.50;7.20;;;11.20;1.00;;;;;;5061250;28;20527;-78
2022/03/27 04:20:49;;;;;;;12.17;8.17;;;11.40;1.00;;;;;;5063516;28;20507;-77
2022/03/27 04:23:17;;;;;;;14.33;8.50;;;11.30;1.00;;;;;;5059677;28;20463;-78
2022/03/27 04:25:46;;;;;;;15.63;8.10;;;11.20;1.00;;;;;;5063976;28;20471;-78
2022/03/27 04:28:15;;;;;;;10.17;7.40;;;11.30;1.00;;;;;;5065777;28;20466;-77
2022/03/27 04:30:43;;;;;;;15.87;9.37;;;11.20;1.00;;;;;;5061739;28;20529;-78
2022/03/27 04:33:12;;;;;;;14.90;6.97;;;11.00;1.00;;;;;;5065754;28;20456;-77
2022/03/27 04:35:41;;;;;;;10.97;7.00;;;10.90;1.00;;;;;;5065589;28;20466;-78
2022/03/27 04:38:09;;;;;;;12.70;6.97;;;10.80;1.00;;;;;;5056414;28;20501;-79
2022/03/27 04:40:37;;;;;;;11.40;7.97;;;10.80;1.00;;;;;;5055959;28;21000;-79
2022/03/27 04:43:06;;;;;;;15.47;7.67;;;10.90;1.00;;;;;;5054749;28;20508;-78
2022/03/27 04:45:36;;;;;;;10.77;7.53;;;10.80;1.00;;;;;;5054944;28;20454;-79
2022/03/27 04:48:05;;;;;;;11.30;7.00;;;10.90;1.00;;;;;;5062380;28;20502;-79
2022/03/27 04:50:33;;;;;;;12.87;6.40;;;11.00;1.00;;;;;;5061368;28;20474;-78
2022/03/27 04:53:01;;;;;;;13.10;6.47;;;10.90;1.00;;;;;;5061191;28;20496;-78
2022/03/27 04:55:29;;;;;;;13.20;7.93;;;11.10;1.00;;;;;;5055634;28;20443;-78
2022/03/27 04:57:58;;;;;;;12.83;7.63;;;10.90;1.00;;;;;;5064769;28;20464;-79
2022/03/27 05:00:26;;;;;;;12.90;6.23;;;10.80;1.00;;;;;;5066253;28;20607;-79
2022/03/27 05:02:55;;;;;;;15.60;8.40;;;10.80;1.00;;;;;;5065697;28;20873;-81
2022/03/27 05:05:24;;;;;;;14.83;7.50;;;10.90;1.00;;;;;;5060007;28;20478;-78
2022/03/27 05:07:53;;;;;;;14.23;7.27;;;10.90;1.00;;;;;;5062844;28;20442;-78
2022/03/27 05:10:21;;;;;;;13.10;7.67;;;11.00;1.00;;;;;;5068372;28;20461;-78
2022/03/27 05:12:49;;;;;;;11.37;7.80;;;10.90;1.00;;;;;;5063886;28;20853;-77
2022/03/27 05:15:18;;;;;;;11.13;9.57;;;10.90;1.00;;;;;;5061484;28;20946;-78
2022/03/27 05:17:47;;;;;;;10.80;6.97;;;10.80;1.00;;;;;;5065163;28;20458;-78
2022/03/27 05:20:17;;;;;;;11.03;7.10;;;10.80;1.00;;;;;;5058850;28;20486;-78
2022/03/27 05:22:45;;;;;;;14.27;7.23;;;10.70;1.00;;;;;;5062511;28;21331;-78
2022/03/27 05:25:15;;;;;;;14.67;9.03;;;10.70;1.00;;;;;;5062692;28;20466;-77
2022/03/27 05:27:48;;;;;;;12.17;7.87;;;10.70;1.00;;;;;;5070188;28;20540;-78
2022/03/27 05:30:19;;;;;;;14.30;6.73;;;10.80;1.00;;;;;;5063569;28;20464;-79
2022/03/27 05:32:47;;;;;;;12.00;7.57;;;10.80;1.00;;;;;;5059992;28;20454;-78
2022/03/27 05:35:17;;;;;;;18.67;6.90;;;10.70;1.00;;;;;;5066323;28;20851;-79
2022/03/27 05:37:47;;;;;;;11.57;7.23;;;10.50;1.00;;;;;;5057014;28;20461;-77
2022/03/27 05:40:18;;;;;;;9.17;6.20;;;10.40;1.00;;;;;;5067011;28;20451;-78
2022/03/27 05:42:47;;;;;;;9.10;6.00;;;10.40;1.00;;;;;;5060461;28;20490;-79
2022/03/27 05:45:16;;;;;;;15.10;8.23;;;10.50;1.00;;;;;;5063087;28;20537;-79
2022/03/27 05:47:45;;;;;;;13.13;7.57;;;10.60;1.00;;;;;;5062402;28;20850;-76
2022/03/27 05:50:16;;;;;;;10.63;6.50;;;10.60;1.00;;;;;;5065677;28;20482;-75
2022/03/27 05:52:46;;;;;;;13.00;7.57;;;10.60;1.00;;;;;;5062532;28;21221;-79
2022/03/27 05:55:14;;;;;;;12.17;6.40;;;10.80;1.00;;;;;;5067044;28;20450;-79
2022/03/27 05:57:43;;;;;;;13.93;6.37;;;10.80;1.00;;;;;;5063578;28;20499;-78
2022/03/27 06:00:16;;;;;;;12.40;6.60;;;10.80;1.00;;;;;;5063771;28;20532;-78
2022/03/27 06:02:44;;;;;;;13.47;7.30;;;10.80;1.00;;;;;;5063160;28;20514;-78
2022/03/27 06:05:13;;;;;;;17.97;8.17;;;10.80;1.00;;;;;;5059449;28;20460;-77
2022/03/27 06:07:47;;;;;;;12.27;7.23;;;10.80;1.00;;;;;;5063827;28;20456;-77
2022/03/27 06:10:17;;;;;;;18.50;9.00;;;10.70;1.00;;;;;;5062156;28;20450;-77
2022/03/27 06:12:45;;;;;;;12.63;8.17;;;10.70;1.00;;;;;;5063172;28;20451;-80
2022/03/27 06:15:15;;;;;;;12.30;6.67;;;10.80;1.00;;;;;;5062995;28;20449;-80
2022/03/27 06:17:45;;;;;;;12.30;7.77;;;10.60;1.00;;;;;;5064644;28;20828;-81
2022/03/27 06:20:21;;;;;;;12.90;8.53;;;10.60;1.00;;;;;;5063470;28;20888;-79
2022/03/27 06:22:51;;;;;;;11.10;8.30;;;10.80;1.00;;;;;;5071839;28;20481;-79
2022/03/27 06:25:21;;;;;;;12.63;6.73;;;11.00;1.00;;;;;;5067428;28;20516;-78
2022/03/27 06:27:49;;;;;;;14.07;7.73;;;11.20;1.00;;;;;;5056237;28;20451;-79
2022/03/27 06:30:19;;;;;;;12.53;6.97;;;11.40;1.00;;;;;;5061404;28;20491;-80
2022/03/27 06:32:48;;;;;;;11.00;8.10;;;11.30;1.00;;;;;;5062023;28;20502;-79
2022/03/27 06:35:17;;;;;;;16.00;8.38;;;11.30;1.00;;;;;;5060333;28;20917;-80
2022/03/27 06:37:46;;;;;;;10.13;6.70;;;11.50;1.00;;;;;;5064931;28;20655;-79
2022/03/27 06:40:17;;;;;;;14.20;7.93;;;11.70;1.00;;;;;;5055953;28;20482;-77
2022/03/27 06:42:46;;;;;;;14.57;6.80;;;11.60;1.00;;;;;;5058602;28;20476;-76
2022/03/27 06:45:16;;;;;;;12.87;7.43;;;11.60;1.00;;;;;;5061426;28;20858;-76
2022/03/27 06:47:45;;;;;;;14.33;6.23;;;11.90;1.00;;;;;;5059022;28;20447;-76
2022/03/27 06:50:15;;;;;;;16.77;8.43;;;12.00;1.00;;;;;;5057880;28;20487;-77
2022/03/27 06:52:44;;;;;;;14.23;7.50;;;12.00;1.00;;;;;;5058815;28;21201;-76
2022/03/27 06:55:12;;;;;;;16.63;9.50;;;12.00;1.00;;;;;;5060795;28;20430;-77
2022/03/27 06:57:42;;;;;;;16.60;8.07;;;12.10;1.00;;;;;;5066152;28;20194;-77
2022/03/27 07:03:06;;;;;;;15.37;9.10;;;12.30;1.00;;;;;;5058314;28;21012;-77
2022/03/27 07:05:38;;;;;;;13.57;7.90;;;12.30;1.00;;;;;;5058113;28;20456;-78
2022/03/27 07:08:08;;;;;;;14.93;7.80;;;12.40;1.00;;;;;;5060304;28;21251;-76
2022/03/27 07:10:37;;;;;;;11.77;7.60;;;12.60;1.00;;;;;;5055965;28;20450;-78
2022/03/27 07:13:10;;;;;;;13.90;8.37;;;12.70;1.00;;;;;;5057723;28;20869;-79
2022/03/27 07:15:39;;;;;;;11.47;7.23;;;12.80;1.00;;;;;;5057958;28;20459;-77
2022/03/27 07:18:08;;;;;;;13.10;7.37;;;12.90;1.00;;;;;;5059203;28;20451;-77
2022/03/27 07:20:38;;;;;;;15.20;9.00;;;13.00;1.00;;;;;;5056651;28;21771;-76
2022/03/27 07:23:09;;;;;;;13.13;8.00;;;13.10;1.00;;;;;;5063372;28;20515;-77
2022/03/27 07:25:39;;;;;;;14.73;8.33;;;13.10;1.00;;;;;;5059658;28;20450;-78
2022/03/27 07:28:10;;;;;;;10.17;7.40;;;13.20;1.00;;;;;;5061590;28;20443;-76
2022/03/27 07:30:42;;;;;;;16.57;7.63;;;13.40;1.00;;;;;;5058635;28;21078;-78
2022/03/27 07:33:10;;;;;;;13.27;8.30;;;13.40;1.00;;;;;;5056324;28;20449;-78
2022/03/27 07:35:39;;;;;;;15.43;8.07;;;13.40;1.00;;;;;;5062279;28;20881;-78
2022/03/27 07:38:08;;;;;;;14.13;8.87;;;13.60;1.00;;;;;;5064050;28;20988;-79
2022/03/27 07:40:36;;;;;;;12.63;8.03;;;13.60;1.00;;;;;;5065663;28;20806;-77
2022/03/27 07:43:05;;;;;;;13.17;7.93;;;13.70;1.00;;;;;;5066557;28;20476;-78
2022/03/27 07:45:35;;;;;;;15.03;10.63;;;13.50;1.00;;;;;;5062186;28;20460;-79
2022/03/27 07:48:05;;;;;;;12.67;9.03;;;13.90;1.00;;;;;;5062291;28;21017;-77
2022/03/27 07:50:33;;;;;;;14.53;8.20;;;14.00;1.00;;;;;;5061692;28;20479;-79
2022/03/27 07:53:02;;;;;;;14.63;8.60;;;14.10;1.00;;;;;;5065775;28;21268;-78
2022/03/27 07:55:31;;;;;;;12.70;8.20;;;14.20;1.00;;;;;;5058284;28;20456;-78
2022/03/27 07:58:00;;;;;;;11.20;7.50;;;14.50;1.00;;;;;;5065274;28;21115;-79
2022/03/27 08:00:28;;;;;;;13.47;7.80;;;14.70;1.00;;;;;;5058925;28;20547;-79
2022/03/27 08:02:59;;;;;;;13.13;7.87;;;14.90;1.00;;;;;;5058682;28;20998;-79
2022/03/27 08:05:28;;;;;;;15.07;8.57;;;15.10;1.00;;;;;;5064075;28;20489;-78
2022/03/27 08:07:56;;;;;;;15.13;8.20;;;15.30;1.00;;;;;;5054152;28;20456;-78
2022/03/27 08:10:24;;;;;;;17.67;8.57;;;15.50;1.00;;;;;;5059394;28;20447;-78
2022/03/27 08:12:52;;;;;;;13.10;7.70;;;15.80;1.00;;;;;;5056041;28;20472;-77
2022/03/27 08:15:21;;;;;;;20.73;9.43;;;16.00;1.00;;;;;;5056531;28;20489;-78
2022/03/27 08:17:53;;;;;;;10.87;8.50;;;16.10;1.00;;;;;;5058682;28;20462;-79
2022/03/27 08:20:25;;;;;;;14.27;9.10;;;16.30;1.00;;;;;;5061183;28;20459;-78
2022/03/27 08:22:54;;;;;;;13.17;7.50;;;16.40;1.00;;;;;;5061330;28;20456;-77
2022/03/27 08:28:10;;;;;;;12.90;9.23;;;16.70;1.00;;;;;;5057306;28;20963;-77
2022/03/27 08:30:39;;;;;;;16.80;8.27;;;16.80;1.00;;;;;;5058455;28;20448;-77
2022/03/27 08:33:08;;;;;;;16.10;9.27;;;16.90;1.00;;;;;;5064122;28;20460;-78
2022/03/27 08:35:41;;;;;;;15.07;8.73;;;16.90;1.00;;;;;;5064553;28;20457;-78
2022/03/27 08:38:10;;;;;;;14.43;8.90;;;17.00;1.00;;;;;;5062977;28;20447;-79
2022/03/27 08:40:39;;;;;;;12.80;8.57;;;16.90;1.00;;;;;;5064470;28;20468;-79
2022/03/27 08:43:10;;;;;;;13.50;7.00;;;17.10;1.00;;;;;;5069234;28;20468;-78
2022/03/27 08:45:38;;;;;;;11.40;7.07;;;17.10;1.00;;;;;;5064871;28;20481;-81
2022/03/27 08:48:07;;;;;;;11.53;6.53;;;17.30;1.00;;;;;;5064541;28;20453;-77
2022/03/27 08:50:43;;;;;;;11.90;7.50;;;17.20;1.00;;;;;;5065653;28;20453;-80
2022/03/27 08:53:12;;;;;;;9.27;5.97;;;17.30;1.00;;;;;;5060560;28;20519;-78
2022/03/27 08:55:46;;;;;;;10.57;6.77;;;17.30;1.00;;;;;;5058685;28;20447;-78
2022/03/27 08:58:15;;;;;;;10.73;5.67;;;17.40;1.00;;;;;;5063864;28;20485;-77
2022/03/27 09:00:44;;;;;;;12.40;6.73;;;17.50;1.00;;;;;;5061389;28;20455;-78
2022/03/27 09:03:13;;;;;;;10.30;6.73;;;17.50;1.00;;;;;;5056263;28;20467;-78
2022/03/27 09:05:42;;;;;;;11.40;7.60;;;17.60;1.00;;;;;;5058842;28;20497;-78
2022/03/27 09:08:12;;;;;;;10.40;6.63;;;17.60;1.00;;;;;;5060186;28;20458;-77
2022/03/27 09:10:41;;;;;;;8.10;5.90;;;17.60;1.00;;;;;;5061365;28;20458;-78
2022/03/27 09:13:12;;;;;;;9.93;6.17;;;17.60;1.00;;;;;;5067829;28;20545;-82
2022/03/27 09:15:40;;;;;;;12.83;6.83;;;17.70;1.00;;;;;;5067461;28;20954;-78
2022/03/27 09:18:09;;;;;;;14.43;7.33;;;17.90;1.00;;;;;;5064015;28;20493;-76
2022/03/27 09:20:41;;;;;;;9.10;6.33;;;17.90;1.00;;;;;;5068002;28;20457;-76
2022/03/27 09:23:16;;;;;;;12.50;5.87;;;17.90;1.00;;;;;;5061188;28;20462;-77
2022/03/27 09:25:46;;;;;;;11.00;6.10;;;18.10;1.00;;;;;;5062451;28;20573;-77
2022/03/27 09:28:26;;;;;;;8.23;5.70;;;18.20;1.00;;;;;;5060734;28;20466;-77
2022/03/27 09:30:55;;;;;;;8.30;5.03;;;18.30;1.00;;;;;;5064334;28;20462;-77
2022/03/27 09:33:49;;;;;;;9.47;6.00;;;18.40;1.00;;;;;;5062196;28;20866;-78
2022/03/27 09:36:21;;;;;;;9.97;7.50;;;18.50;1.00;;;;;;5063595;28;20520;-77
2022/03/27 09:39:08;;;;;;;9.40;6.17;;;18.50;1.00;;;;;;5058740;28;20466;-77
2022/03/27 09:41:40;;;;;;;10.70;7.40;;;18.60;1.00;;;;;;5063193;28;20546;-78
2022/03/27 09:44:10;;;;;;;12.13;7.13;;;18.70;1.00;;;;;;5056154;28;20478;-77
2022/03/27 09:46:50;;;;;;;10.10;7.47;;;18.70;1.00;;;;;;5055526;28;20458;-77
2022/03/27 09:49:20;;;;;;;9.93;6.27;;;18.80;1.00;;;;;;5058329;28;20471;-76
2022/03/27 09:52:09;;;;;;;8.13;5.90;;;18.80;1.00;;;;;;5058711;28;20529;-77
2022/03/27 09:54:53;;;;;;;11.00;5.93;;;18.90;1.00;;;;;;5056852;28;20467;-76
2022/03/27 09:57:24;;;;;;;12.20;6.77;;;18.90;1.00;;;;;;5056890;28;20451;-77
2022/03/27 09:59:53;;;;;;;11.50;7.00;;;19.00;1.00;;;;;;5054914;28;20474;-77
2022/03/27 10:02:24;;;;;;;13.73;7.30;;;19.00;1.00;;;;;;5055294;28;20463;-77
2022/03/27 10:04:58;;;;;;;11.40;7.00;;;18.70;1.00;;;;;;5052130;28;20475;-76
2022/03/27 10:07:38;;;;;;;8.33;6.43;;;18.60;1.00;;;;;;5057990;28;20537;-76
2022/03/27 10:10:10;;;;;;;10.77;6.00;;;18.70;1.00;;;;;;5062531;28;20470;-77
2022/03/27 10:12:40;;;;;;;12.30;5.43;;;18.70;1.00;;;;;;5060335;28;20446;-77
2022/03/27 10:15:12;;;;;;;12.10;6.63;;;18.80;1.00;;;;;;5061689;28;20447;-77
2022/03/27 10:17:41;;;;;;;10.00;5.50;;;18.70;1.00;;;;;;5057417;28;20455;-74
2022/03/27 10:20:12;;;;;;;7.17;5.40;;;18.80;1.00;;;;;;5057713;28;20495;-78
2022/03/27 10:22:43;;;;;;;8.43;5.37;;;18.80;1.00;;;;;;5062557;28;20448;-79
2022/03/27 10:25:16;;;;;;;10.60;5.70;;;18.90;1.00;;;;;;5055505;28;20478;-77
2022/03/27 10:27:47;;;;;;;10.10;5.17;;;19.00;1.00;;;;;;5056576;28;20458;-77
2022/03/27 10:30:17;;;;;;;9.80;4.80;;;19.20;1.00;;;;;;5062624;28;20486;-78
2022/03/27 10:32:46;;;;;;;7.60;4.40;;;19.30;1.00;;;;;;5061218;28;20467;-77
2022/03/27 10:35:44;;;;;;;11.10;6.07;;;19.50;1.00;;;;;;5053959;28;20539;-78
2022/03/27 10:38:19;;;;;;;7.97;5.72;;;19.60;1.00;;;;;;5061253;28;20411;-77
2022/03/27 10:40:55;;;;;;;7.73;5.37;;;19.60;1.00;;;;;;5055116;28;20220;-77
2022/03/27 10:43:29;;;;;;;5.83;4.80;;;19.60;1.00;;;;;;5059765;28;20500;-77
2022/03/27 10:46:15;;;;;;;7.93;5.50;;;19.70;1.00;;;;;;5060987;28;20554;-77
2022/03/27 10:48:44;;;;;;;10.63;5.37;;;19.70;1.00;;;;;;5062847;28;20465;-79
2022/03/27 10:51:33;;;;;;;10.50;5.80;;;19.80;1.00;;;;;;5065129;28;20486;-79
2022/03/27 10:54:04;;;;;;;9.50;5.30;;;19.80;1.00;;;;;;5058955;28;20458;-79
2022/03/27 10:56:35;;;;;;;7.63;4.80;;;19.70;1.00;;;;;;5064783;28;20989;-80
2022/03/27 10:59:15;;;;;;;8.53;5.30;;;19.80;1.00;;;;;;5062750;28;20463;-80
2022/03/27 11:01:46;;;;;;;14.32;7.13;;;19.90;1.00;;;;;;5051698;28;20448;-81
2022/03/27 11:04:15;;;;;;;7.83;5.70;;;19.90;1.00;;;;;;5056414;28;20197;-79
2022/03/27 11:06:45;;;;;;;9.90;6.10;;;19.90;1.00;;;;;;5052509;28;20493;-80
2022/03/27 11:09:31;;;;;;;7.53;5.60;;;19.90;1.00;;;;;;5058843;28;20494;-80
2022/03/27 11:12:03;;;;;;;9.00;5.70;;;20.00;1.00;;;;;;5067042;28;20454;-79
2022/03/27 11:14:58;;;;;;;9.53;6.27;;;20.00;1.00;;;;;;5065254;28;20463;-80
2022/03/27 11:17:37;;;;;;;5.93;4.80;;;20.00;1.00;;;;;;5064073;28;20455;-78
2022/03/27 11:20:08;;;;;;;8.63;5.03;;;20.00;1.00;;;;;;5058896;28;21020;-81
2022/03/27 11:22:44;;;;;;;8.80;5.70;;;20.20;1.00;;;;;;5064748;28;20455;-78
2022/03/27 11:25:47;;;;;;;8.47;5.37;;;20.20;1.00;;;;;;5063094;28;20486;-78
2022/03/27 11:28:18;;;;;;;9.30;5.80;;;20.10;1.00;;;;;;5061368;28;20557;-81
2022/03/27 11:31:18;;;;;;;9.70;5.77;;;20.20;1.00;;;;;;5060830;28;20955;-79
2022/03/27 11:34:18;;;;;;;10.57;5.43;;;20.20;1.00;;;;;;5044668;28;20466;-79
2022/03/27 11:37:05;;;;;;;11.40;7.07;;;20.30;1.00;;;;;;5062629;28;21007;-79
2022/03/27 11:39:36;;;;;;;8.40;6.40;;;20.30;1.00;;;;;;5069236;28;20481;-79
2022/03/27 11:42:29;;;;;;;7.23;4.77;;;20.40;1.00;;;;;;5051573;28;20450;-79
2022/03/27 11:45:13;;;;;;;10.00;4.90;;;20.40;1.00;;;;;;5061970;28;20451;-79
2022/03/27 11:47:43;;;;;;;7.53;4.77;;;20.40;1.00;;;;;;5070388;28;20458;-78
2022/03/27 11:50:21;;;;;;;8.57;6.03;;;20.60;1.00;;;;;;5064907;28;20462;-79
2022/03/27 11:52:49;;;;;;;10.77;6.10;;;20.50;1.00;;;;;;5061340;28;20978;-79
2022/03/27 11:55:18;;;;;;;12.13;6.63;;;20.50;1.00;;;;;;5067099;28;20454;-80
2022/03/27 11:57:48;;;;;;;6.97;5.20;;;20.50;1.00;;;;;;5059269;28;20989;-80
2022/03/27 12:00:34;;;;;;;11.33;5.60;;;20.50;1.00;;;;;;5065926;28;20536;-81
2022/03/27 12:03:05;;;;;;;8.90;5.03;;;20.50;1.00;;;;;;5061866;28;20451;-79
2022/03/27 12:05:35;;;;;;;9.43;5.53;;;20.70;1.00;;;;;;5058893;28;20475;-78
2022/03/27 12:08:06;;;;;;;7.37;5.47;;;20.70;1.00;;;;;;5074533;28;20448;-78
2022/03/27 12:10:43;;;;;;;9.37;4.60;;;20.80;1.00;;;;;;5063283;28;20455;-79
2022/03/27 12:13:13;;;;;;;10.97;4.63;;;20.70;1.00;;;;;;5068548;28;20447;-79
2022/03/27 12:15:49;;;;;;;7.60;4.90;;;20.70;1.00;;;;;;5066239;28;20481;-81
2022/03/27 12:18:29;;;;;;;8.17;5.40;;;20.80;1.00;;;;;;5059039;28;20481;-80
2022/03/27 12:20:58;;;;;;;9.70;4.67;;;20.80;1.00;;;;;;5063311;28;20452;-80
2022/03/27 12:23:28;;;;;;;7.60;5.10;;;20.80;1.00;;;;;;5069285;28;20518;-80
2022/03/27 12:26:04;;;;;;;8.90;5.03;;;20.80;1.00;;;;;;5066453;28;20470;-79
2022/03/27 12:31:24;;;;;;;7.90;5.10;;;20.80;1.00;;;;;;5059415;28;20458;-79
2022/03/27 12:33:53;;;;;;;7.97;4.87;;;20.90;1.00;;;;;;5063221;28;20456;-80
2022/03/27 12:36:23;;;;;;;10.53;4.50;;;21.00;1.00;;;;;;5072103;28;20478;-79
2022/03/27 12:38:51;;;;;;;11.53;5.10;;;21.10;1.00;;;;;;5060664;28;20477;-80
2022/03/27 12:41:42;;;;;;;9.93;6.23;;;21.20;1.00;;;;;;5072041;28;20457;-81
2022/03/27 12:44:10;;;;;;;10.13;5.87;;;21.30;1.00;;;;;;5068693;28;20502;-83
2022/03/27 12:46:50;;;;;;;5.97;3.97;;;21.20;1.00;;;;;;5072070;28;20466;-80
2022/03/27 12:49:18;;;;;;;6.80;4.77;;;21.30;1.00;;;;;;5061112;28;21077;-79
2022/03/27 12:51:57;;;;;;;8.93;5.10;;;21.20;1.00;;;;;;5061582;28;20458;-79
2022/03/27 12:54:25;;;;;;;5.83;3.83;;;21.30;1.00;;;;;;5054414;28;20447;-80
2022/03/27 12:56:57;;;;;;;5.97;4.27;;;21.30;1.00;;;;;;5068418;28;20454;-77
2022/03/27 12:59:25;;;;;;;10.03;5.00;;;21.30;1.00;;;;;;5071286;28;20880;-79
2022/03/27 13:01:56;;;;;;;6.03;4.07;;;21.40;1.00;;;;;;5074108;28;20446;-78
2022/03/27 13:04:24;;;;;;;7.23;4.67;;;21.40;1.00;;;;;;5061265;28;20500;-80
2022/03/27 13:06:58;;;;;;;5.33;4.60;;;21.50;1.00;;;;;;5069644;28;20986;-80
2022/03/27 13:09:27;;;;;;;8.03;4.30;;;21.20;1.00;;;;;;5074090;28;20512;-80
2022/03/27 13:11:56;;;;;;;8.50;3.67;;;21.30;1.00;;;;;;5073850;28;20451;-79
2022/03/27 13:14:26;;;;;;;8.23;4.53;;;21.40;1.00;;;;;;5066563;28;20466;-79
2022/03/27 13:16:58;;;;;;;4.57;3.70;;;21.40;1.00;;;;;;5069325;28;20455;-82
2022/03/27 13:19:42;;;;;;;4.67;4.10;;;21.50;1.00;;;;;;5063382;28;20553;-80
2022/03/27 13:22:13;;;;;;;5.33;3.93;;;21.50;1.00;;;;;;5068444;28;20455;-80